createdAt,value
2019-06-27T00:00:44.540Z,1021
2019-06-27T00:02:03.096Z,1021.03
2019-06-27T00:02:55.431Z,1021
2019-06-27T00:03:21.637Z,1021.04
2019-06-27T00:04:13.947Z,1021.01
2019-06-27T00:05:06.250Z,1021.05
2019-06-27T00:05:32.391Z,1021.03
2019-06-27T00:06:24.726Z,1021.03
2019-06-27T00:07:43.157Z,1021.04
2019-06-27T00:08:35.467Z,1021.05
2019-06-27T00:09:01.606Z,1021.06
2019-06-27T00:09:53.927Z,1021.07
2019-06-27T00:10:46.235Z,1021.02
2019-06-27T00:11:12.353Z,1021.04
2019-06-27T00:12:04.693Z,1021.03
2019-06-27T00:13:23.133Z,1021.08
2019-06-27T00:14:15.425Z,1021.07
2019-06-27T00:14:41.556Z,1021.08
2019-06-27T00:15:33.890Z,1021.08
2019-06-27T00:16:26.218Z,1021.08
2019-06-27T00:16:52.353Z,1021.13
2019-06-27T00:17:44.641Z,1021.05
2019-06-27T00:19:03.105Z,1021.08
2019-06-27T00:19:55.417Z,1021.06
2019-06-27T00:20:21.556Z,1021.02
2019-06-27T00:21:13.908Z,1021.05
2019-06-27T00:22:06.199Z,1021.06
2019-06-27T00:22:32.330Z,1021.04
2019-06-27T00:23:24.688Z,1021.09
2019-06-27T00:24:43.140Z,1021.13
2019-06-27T00:25:35.482Z,1021.13
2019-06-27T00:26:01.760Z,1021.11
2019-06-27T00:26:57.352Z,1021.1
2019-06-27T00:27:22.185Z,1021.08
2019-06-27T00:28:14.462Z,1021.09
2019-06-27T00:29:32.879Z,1021.09
2019-06-27T00:30:25.170Z,1021.1
2019-06-27T00:30:51.307Z,1021.06
2019-06-27T00:31:43.625Z,1021.07
2019-06-27T00:32:35.916Z,1021.09
2019-06-27T00:33:02.049Z,1021.06
2019-06-27T00:33:54.402Z,1021.07
2019-06-27T00:34:20.543Z,1021.07
2019-06-27T00:35:12.820Z,1021.07
2019-06-27T00:35:38.957Z,1021.05
2019-06-27T00:36:31.268Z,1021.04
2019-06-27T00:37:23.593Z,1021.09
2019-06-27T00:37:49.731Z,1021.08
2019-06-27T00:38:42.021Z,1021.08
2019-06-27T00:40:00.444Z,1021.1
2019-06-27T00:40:52.733Z,1021.07
2019-06-27T00:41:18.891Z,1021.06
2019-06-27T00:42:11.226Z,1021.03
2019-06-27T00:43:03.511Z,1021.04
2019-06-27T00:43:29.644Z,1021.01
2019-06-27T00:44:21.939Z,1021.06
2019-06-27T00:45:40.396Z,1021.04
2019-06-27T00:46:32.682Z,1021.07
2019-06-27T00:46:58.824Z,1021.08
2019-06-27T00:47:51.105Z,1021.08
2019-06-27T00:48:43.434Z,1021.05
2019-06-27T00:49:09.572Z,1021.05
2019-06-27T00:50:01.858Z,1021.13
2019-06-27T00:51:20.311Z,1021.1
2019-06-27T00:52:12.645Z,1021.11
2019-06-27T00:52:38.778Z,1021.1
2019-06-27T00:53:31.096Z,1021.13
2019-06-27T00:54:23.386Z,1021.13
2019-06-27T00:54:49.532Z,1021.13
2019-06-27T00:55:41.825Z,1021.19
2019-06-27T00:57:13.248Z,1021.1
2019-06-27T00:58:20.696Z,1021.17
2019-06-27T00:59:12.988Z,1021.13
2019-06-27T00:59:39.167Z,1021.13
2019-06-27T01:00:31.470Z,1021.12
2019-06-27T01:01:23.817Z,1021.12
2019-06-27T01:01:49.998Z,1021.11
2019-06-27T01:02:42.278Z,1021.12
2019-06-27T01:04:00.741Z,1021.11
2019-06-27T01:04:53.028Z,1021.11
2019-06-27T01:05:19.168Z,1021.1
2019-06-27T01:06:11.481Z,1021.1
2019-06-27T01:07:03.802Z,1021.11
2019-06-27T01:07:29.954Z,1021.1
2019-06-27T01:08:22.271Z,1021.13
2019-06-27T01:09:40.751Z,1021.14
2019-06-27T01:10:33.073Z,1021.12
2019-06-27T01:10:59.211Z,1021.14
2019-06-27T01:11:51.493Z,1021.18
2019-06-27T01:12:43.831Z,1021.15
2019-06-27T01:13:09.970Z,1021.17
2019-06-27T01:14:02.279Z,1021.14
2019-06-27T01:15:20.734Z,1021.21
2019-06-27T01:16:13.055Z,1021.25
2019-06-27T01:16:39.202Z,1021.22
2019-06-27T01:17:31.542Z,1021.24
2019-06-27T01:18:23.866Z,1021.22
2019-06-27T01:18:50.029Z,1021.22
2019-06-27T01:19:42.328Z,1021.19
2019-06-27T01:21:00.927Z,1021.22
2019-06-27T01:21:53.160Z,1021.19
2019-06-27T01:22:19.312Z,1021.22
2019-06-27T01:23:11.635Z,1021.22
2019-06-27T01:24:31.067Z,1021.19
2019-06-27T01:25:23.386Z,1021.19
2019-06-27T01:25:49.527Z,1021.24
2019-06-27T01:26:41.839Z,1021.23
2019-06-27T01:28:02.238Z,1021.23
2019-06-27T01:29:20.673Z,1021.22
2019-06-27T01:30:12.959Z,1021.25
2019-06-27T01:30:39.098Z,1021.24
2019-06-27T01:31:31.543Z,1021.22
2019-06-27T01:32:23.761Z,1021.21
2019-06-27T01:32:49.934Z,1021.23
2019-06-27T01:33:42.215Z,1021.23
2019-06-27T01:35:04.014Z,1021.23
2019-06-27T01:36:20.153Z,1021.21
2019-06-27T01:37:12.484Z,1021.21
2019-06-27T01:38:30.960Z,1021.18
2019-06-27T01:39:23.271Z,1021.2
2019-06-27T01:39:49.424Z,1021.17
2019-06-27T01:40:41.716Z,1021.15
2019-06-27T01:42:00.161Z,1021.13
2019-06-27T01:42:52.444Z,1021.12
2019-06-27T01:44:11.899Z,1021.12
2019-06-27T01:45:30.352Z,1021.14
2019-06-27T01:46:22.675Z,1021.15
2019-06-27T01:46:48.842Z,1021.13
2019-06-27T01:47:41.173Z,1021.15
2019-06-27T01:48:33.543Z,1021.13
2019-06-27T01:48:59.687Z,1021.14
2019-06-27T01:49:51.982Z,1021.17
2019-06-27T01:51:10.456Z,1021.19
2019-06-27T01:52:02.761Z,1021.22
2019-06-27T01:52:28.900Z,1021.2
2019-06-27T01:53:21.215Z,1021.24
2019-06-27T01:54:13.542Z,1021.21
2019-06-27T01:54:39.677Z,1021.2
2019-06-27T01:55:31.961Z,1021.18
2019-06-27T01:56:50.406Z,1021.2
2019-06-27T01:57:46.850Z,1021.22
2019-06-27T01:58:10.802Z,1021.25
2019-06-27T01:59:03.091Z,1021.2
2019-06-27T01:59:29.298Z,1021.21
2019-06-27T02:00:21.616Z,1021.22
2019-06-27T02:01:40.112Z,1021.21
2019-06-27T02:02:32.401Z,1021.23
2019-06-27T02:03:50.832Z,1021.24
2019-06-27T02:04:43.163Z,1021.22
2019-06-27T02:05:09.327Z,1021.24
2019-06-27T02:06:01.657Z,1021.22
2019-06-27T02:07:20.120Z,1021.26
2019-06-27T02:08:12.412Z,1021.29
2019-06-27T02:09:33.395Z,1021.25
2019-06-27T02:10:23.221Z,1021.25
2019-06-27T02:10:49.354Z,1021.23
2019-06-27T02:11:41.668Z,1021.25
2019-06-27T02:13:00.093Z,1021.23
2019-06-27T02:13:52.384Z,1021.24
2019-06-27T02:15:10.818Z,1021.19
2019-06-27T02:16:30.290Z,1021.21
2019-06-27T02:17:22.570Z,1021.2
2019-06-27T02:17:48.708Z,1021.19
2019-06-27T02:18:41.023Z,1021.16
2019-06-27T02:19:33.346Z,1021.16
2019-06-27T02:19:59.485Z,1021.19
2019-06-27T02:20:51.798Z,1021.17
2019-06-27T02:22:10.247Z,1021.22
2019-06-27T02:23:02.550Z,1021.23
2019-06-27T02:23:29.694Z,1021.23
2019-06-27T02:24:22.004Z,1021.22
2019-06-27T02:25:40.452Z,1021.25
2019-06-27T02:26:32.730Z,1021.24
2019-06-27T02:26:58.871Z,1021.3
2019-06-27T02:28:02.936Z,1021.31
2019-06-27T02:28:19.325Z,1021.28
2019-06-27T02:29:11.614Z,1021.3
2019-06-27T02:30:30.068Z,1021.28
2019-06-27T02:31:22.363Z,1021.28
2019-06-27T02:32:40.829Z,1021.34
2019-06-27T02:33:33.132Z,1021.33
2019-06-27T02:33:59.271Z,1021.36
2019-06-27T02:34:51.627Z,1021.31
2019-06-27T02:36:10.085Z,1021.35
2019-06-27T02:37:02.402Z,1021.33
2019-06-27T02:38:20.844Z,1021.35
2019-06-27T02:39:13.165Z,1021.34
2019-06-27T02:39:39.338Z,1021.34
2019-06-27T02:40:31.682Z,1021.31
2019-06-27T02:41:50.126Z,1021.36
2019-06-27T02:42:42.449Z,1021.33
2019-06-27T02:44:00.979Z,1021.36
2019-06-27T02:44:53.302Z,1021.37
2019-06-27T02:45:19.460Z,1021.37
2019-06-27T02:46:11.779Z,1021.36
2019-06-27T02:47:30.265Z,1021.38
2019-06-27T02:48:22.566Z,1021.41
2019-06-27T02:48:48.732Z,1021.38
2019-06-27T02:49:41.081Z,1021.38
2019-06-27T02:50:33.428Z,1021.4
2019-06-27T02:50:59.555Z,1021.4
2019-06-27T02:51:51.841Z,1021.4
2019-06-27T02:53:10.366Z,1021.43
2019-06-27T02:54:02.707Z,1021.44
2019-06-27T02:54:28.809Z,1021.43
2019-06-27T02:55:21.147Z,1021.48
2019-06-27T02:56:13.472Z,1021.43
2019-06-27T02:56:39.612Z,1021.48
2019-06-27T02:57:31.940Z,1021.49
2019-06-27T02:58:53.762Z,1021.48
2019-06-27T02:59:19.902Z,1021.49
2019-06-27T03:00:12.241Z,1021.47
2019-06-27T03:01:30.685Z,1021.46
2019-06-27T03:02:23.035Z,1021.48
2019-06-27T03:02:49.231Z,1021.46
2019-06-27T03:03:41.548Z,1021.49
2019-06-27T03:05:00.144Z,1021.47
2019-06-27T03:05:52.456Z,1021.51
2019-06-27T03:07:11.028Z,1021.52
2019-06-27T03:08:03.350Z,1021.53
2019-06-27T03:08:29.515Z,1021.54
2019-06-27T03:09:21.824Z,1021.54
2019-06-27T03:10:40.285Z,1021.5
2019-06-27T03:11:32.628Z,1021.51
2019-06-27T03:12:00.404Z,1021.55
2019-06-27T03:12:52.051Z,1021.56
2019-06-27T03:14:10.542Z,1021.59
2019-06-27T03:15:02.831Z,1021.54
2019-06-27T03:15:29.016Z,1021.6
2019-06-27T03:16:21.352Z,1021.54
2019-06-27T03:17:13.639Z,1021.57
2019-06-27T03:17:39.809Z,1021.56
2019-06-27T03:18:32.095Z,1021.54
2019-06-27T03:19:50.520Z,1021.57
2019-06-27T03:20:42.799Z,1021.54
2019-06-27T03:21:08.969Z,1021.52
2019-06-27T03:22:05.561Z,1021.55
2019-06-27T03:23:20.755Z,1021.51
2019-06-27T03:24:13.120Z,1021.53
2019-06-27T03:24:39.253Z,1021.57
2019-06-27T03:25:31.597Z,1021.56
2019-06-27T03:26:50.142Z,1021.61
2019-06-27T03:27:42.429Z,1021.6
2019-06-27T03:29:03.867Z,1021.61
2019-06-27T03:29:30.987Z,1021.61
2019-06-27T03:30:23.316Z,1021.62
2019-06-27T03:30:49.480Z,1021.64
2019-06-27T03:31:41.787Z,1021.63
2019-06-27T03:33:00.248Z,1021.61
2019-06-27T03:33:52.595Z,1021.63
2019-06-27T03:34:18.751Z,1021.58
2019-06-27T03:35:11.151Z,1021.55
2019-06-27T03:36:03.475Z,1021.6
2019-06-27T03:36:29.646Z,1021.61
2019-06-27T03:37:21.950Z,1021.63
2019-06-27T03:38:40.395Z,1021.61
2019-06-27T03:39:32.700Z,1021.61
2019-06-27T03:39:58.907Z,1021.62
2019-06-27T03:40:51.239Z,1021.69
2019-06-27T03:41:43.529Z,1021.64
2019-06-27T03:42:09.706Z,1021.66
2019-06-27T03:43:02.061Z,1021.64
2019-06-27T03:44:20.507Z,1021.7
2019-06-27T03:45:15.500Z,1021.69
2019-06-27T03:45:39.952Z,1021.68
2019-06-27T03:46:32.255Z,1021.68
2019-06-27T03:47:50.754Z,1021.69
2019-06-27T03:48:43.140Z,1021.69
2019-06-27T03:49:09.289Z,1021.7
2019-06-27T03:50:01.577Z,1021.71
2019-06-27T03:51:20.113Z,1021.75
2019-06-27T03:52:12.445Z,1021.72
2019-06-27T03:53:30.873Z,1021.72
2019-06-27T03:54:23.183Z,1021.75
2019-06-27T03:54:49.340Z,1021.74
2019-06-27T03:55:41.883Z,1021.74
2019-06-27T03:57:01.067Z,1021.7
2019-06-27T03:58:20.971Z,1021.75
2019-06-27T03:59:42.814Z,1021.76
2019-06-27T04:00:08.960Z,1021.74
2019-06-27T04:01:01.250Z,1021.71
2019-06-27T04:01:53.591Z,1021.75
2019-06-27T04:02:19.753Z,1021.74
2019-06-27T04:03:12.092Z,1021.72
2019-06-27T04:04:30.816Z,1021.72
2019-06-27T04:05:23.082Z,1021.65
2019-06-27T04:05:49.224Z,1021.66
2019-06-27T04:06:41.569Z,1021.71
2019-06-27T04:07:33.893Z,1021.67
2019-06-27T04:08:00.054Z,1021.68
2019-06-27T04:08:52.354Z,1021.65
2019-06-27T04:10:10.878Z,1021.66
2019-06-27T04:11:03.159Z,1021.71
2019-06-27T04:11:29.325Z,1021.64
2019-06-27T04:12:21.615Z,1021.67
2019-06-27T04:13:40.175Z,1021.67
2019-06-27T04:14:32.507Z,1021.68
2019-06-27T04:15:51.015Z,1021.71
2019-06-27T04:16:43.355Z,1021.68
2019-06-27T04:17:09.595Z,1021.71
2019-06-27T04:18:01.901Z,1021.69
2019-06-27T04:19:20.390Z,1021.7
2019-06-27T04:20:12.716Z,1021.73
2019-06-27T04:20:38.913Z,1021.71
2019-06-27T04:21:31.237Z,1021.72
2019-06-27T04:22:50.677Z,1021.75
2019-06-27T04:23:42.992Z,1021.73
2019-06-27T04:24:09.132Z,1021.79
2019-06-27T04:25:01.444Z,1021.78
2019-06-27T04:25:53.733Z,1021.82
2019-06-27T04:26:19.863Z,1021.84
2019-06-27T04:27:12.201Z,1021.85
2019-06-27T04:28:31.680Z,1021.84
2019-06-27T04:29:53.167Z,1021.88
2019-06-27T04:30:19.352Z,1021.9
2019-06-27T04:31:11.640Z,1021.89
2019-06-27T04:32:30.117Z,1021.94
2019-06-27T04:33:22.443Z,1021.95
2019-06-27T04:34:40.925Z,1021.98
2019-06-27T04:35:33.264Z,1022.01
2019-06-27T04:35:59.402Z,1021.98
2019-06-27T04:36:51.693Z,1022.01
2019-06-27T04:38:10.149Z,1021.99
2019-06-27T04:39:02.529Z,1022.03
2019-06-27T04:39:28.689Z,1022
2019-06-27T04:40:21.023Z,1022
2019-06-27T04:41:13.339Z,1022.01
2019-06-27T04:41:39.475Z,1022.04
2019-06-27T04:42:31.805Z,1022.01
2019-06-27T04:43:51.250Z,1022
2019-06-27T04:44:43.587Z,1022.01
2019-06-27T04:45:09.730Z,1022.03
2019-06-27T04:46:02.054Z,1022.04
2019-06-27T04:47:20.539Z,1022.05
2019-06-27T04:48:12.874Z,1022.04
2019-06-27T04:48:39.023Z,1022.05
2019-06-27T04:49:31.379Z,1022.05
2019-06-27T04:50:23.728Z,1022.02
2019-06-27T04:50:49.892Z,1022.01
2019-06-27T04:51:42.248Z,1022.06
2019-06-27T04:53:00.725Z,1022.04
2019-06-27T04:53:53.085Z,1022.05
2019-06-27T04:54:19.189Z,1022.08
2019-06-27T04:55:12.467Z,1022.04
2019-06-27T04:56:30.982Z,1022.05
2019-06-27T04:57:23.294Z,1022.1
2019-06-27T04:57:49.431Z,1022.1
2019-06-27T04:58:41.731Z,1022.04
2019-06-27T05:00:01.246Z,1022.07
2019-06-27T05:00:53.607Z,1022.06
2019-06-27T05:01:19.773Z,1022.09
2019-06-27T05:02:12.090Z,1022.05
2019-06-27T05:03:30.627Z,1022.02
2019-06-27T05:04:22.942Z,1022.11
2019-06-27T05:04:49.075Z,1022.04
2019-06-27T05:05:41.385Z,1022.09
2019-06-27T05:06:33.733Z,1022.07
2019-06-27T05:06:59.901Z,1022.07
2019-06-27T05:07:52.185Z,1022.08
2019-06-27T05:09:10.696Z,1022.06
2019-06-27T05:10:02.984Z,1022.08
2019-06-27T05:10:29.154Z,1022.1
2019-06-27T05:11:21.465Z,1022.12
2019-06-27T05:12:13.780Z,1022.15
2019-06-27T05:12:39.918Z,1022.15
2019-06-27T05:13:32.216Z,1022.14
2019-06-27T05:14:51.635Z,1022.24
2019-06-27T05:16:10.127Z,1022.31
2019-06-27T05:17:02.466Z,1022.3
2019-06-27T05:18:20.926Z,1022.18
2019-06-27T05:19:13.232Z,1022.2
2019-06-27T05:19:39.373Z,1022.22
2019-06-27T05:20:31.709Z,1022.19
2019-06-27T05:21:50.143Z,1022.22
2019-06-27T05:22:42.478Z,1022.22
2019-06-27T05:23:09.068Z,1022.24
2019-06-27T05:24:01.431Z,1022.23
2019-06-27T05:24:53.749Z,1022.28
2019-06-27T05:25:19.917Z,1022.31
2019-06-27T05:26:12.230Z,1022.29
2019-06-27T05:27:30.695Z,1022.3
2019-06-27T05:28:23.042Z,1022.28
2019-06-27T05:28:49.184Z,1022.31
2019-06-27T05:29:41.498Z,1022.29
2019-06-27T05:31:01.961Z,1022.29
2019-06-27T05:32:20.432Z,1022.28
2019-06-27T05:33:12.733Z,1022.32
2019-06-27T05:33:38.864Z,1022.39
2019-06-27T05:34:31.180Z,1022.33
2019-06-27T05:35:23.475Z,1022.4
2019-06-27T05:35:49.650Z,1022.35
2019-06-27T05:36:42.927Z,1022.34
2019-06-27T05:37:09.077Z,1022.35
2019-06-27T05:38:01.369Z,1022.33
2019-06-27T05:38:53.674Z,1022.38
2019-06-27T05:39:19.817Z,1022.36
2019-06-27T05:40:12.113Z,1022.35
2019-06-27T05:41:30.544Z,1022.4
2019-06-27T05:42:22.848Z,1022.42
2019-06-27T05:42:49.047Z,1022.43
2019-06-27T05:43:41.366Z,1022.38
2019-06-27T05:44:33.657Z,1022.37
2019-06-27T05:44:59.797Z,1022.33
2019-06-27T05:45:52.128Z,1022.34
2019-06-27T05:47:10.631Z,1022.34
2019-06-27T05:48:02.908Z,1022.39
2019-06-27T05:48:29.075Z,1022.35
2019-06-27T05:49:21.397Z,1022.38
2019-06-27T05:50:13.742Z,1022.37
2019-06-27T05:50:39.882Z,1022.41
2019-06-27T05:51:32.208Z,1022.39
2019-06-27T05:52:50.659Z,1022.39
2019-06-27T05:53:45.582Z,1022.37
2019-06-27T05:54:10.111Z,1022.38
2019-06-27T05:55:02.503Z,1022.33
2019-06-27T05:56:20.894Z,1022.4
2019-06-27T05:57:13.228Z,1022.42
2019-06-27T05:57:39.377Z,1022.4
2019-06-27T05:58:31.702Z,1022.43
2019-06-27T05:59:50.194Z,1022.43
2019-06-27T06:01:11.062Z,1022.43
2019-06-27T06:02:03.597Z,1022.43
2019-06-27T06:02:29.771Z,1022.48
2019-06-27T06:03:22.136Z,1022.42
2019-06-27T06:04:40.593Z,1022.43
2019-06-27T06:05:33.486Z,1022.42
2019-06-27T06:05:59.664Z,1022.44
2019-06-27T06:06:51.983Z,1022.39
2019-06-27T06:08:10.565Z,1022.41
2019-06-27T06:09:02.840Z,1022.43
2019-06-27T06:09:31.995Z,1022.43
2019-06-27T06:10:21.339Z,1022.38
2019-06-27T06:11:13.621Z,1022.37
2019-06-27T06:11:39.786Z,1022.38
2019-06-27T06:12:32.134Z,1022.4
2019-06-27T06:13:50.644Z,1022.36
2019-06-27T06:14:43.220Z,1022.34
2019-06-27T06:15:09.862Z,1022.35
2019-06-27T06:16:02.154Z,1022.34
2019-06-27T06:17:20.594Z,1022.29
2019-06-27T06:18:13.112Z,1022.3
2019-06-27T06:18:39.256Z,1022.33
2019-06-27T06:19:31.566Z,1022.32
2019-06-27T06:20:50.105Z,1022.31
2019-06-27T06:21:42.397Z,1022.34
2019-06-27T06:23:00.909Z,1022.32
2019-06-27T06:23:53.215Z,1022.35
2019-06-27T06:24:19.380Z,1022.37
2019-06-27T06:25:11.700Z,1022.36
2019-06-27T06:26:30.192Z,1022.39
2019-06-27T06:27:22.493Z,1022.35
2019-06-27T06:28:40.986Z,1022.41
2019-06-27T06:29:33.294Z,1022.4
2019-06-27T06:29:59.428Z,1022.41
2019-06-27T06:30:53.211Z,1022.41
2019-06-27T06:31:19.366Z,1022.4
2019-06-27T06:32:11.707Z,1022.43
2019-06-27T06:33:30.134Z,1022.45
2019-06-27T06:34:22.456Z,1022.43
2019-06-27T06:35:40.957Z,1022.41
2019-06-27T06:36:33.241Z,1022.47
2019-06-27T06:36:59.408Z,1022.49
2019-06-27T06:37:51.725Z,1022.49
2019-06-27T06:39:10.231Z,1022.52
2019-06-27T06:40:02.523Z,1022.51
2019-06-27T06:40:28.670Z,1022.53
2019-06-27T06:41:21.014Z,1022.54
2019-06-27T06:42:13.309Z,1022.57
2019-06-27T06:42:39.453Z,1022.56
2019-06-27T06:43:32.174Z,1022.54
2019-06-27T06:44:50.663Z,1022.48
2019-06-27T06:45:43.059Z,1022.53
2019-06-27T06:46:09.189Z,1022.51
2019-06-27T06:47:01.530Z,1022.53
2019-06-27T06:47:53.824Z,1022.53
2019-06-27T06:48:19.993Z,1022.52
2019-06-27T06:49:12.366Z,1022.56
2019-06-27T06:50:31.827Z,1022.56
2019-06-27T06:51:50.347Z,1022.54
2019-06-27T06:52:42.662Z,1022.55
2019-06-27T06:53:08.837Z,1022.59
2019-06-27T06:54:01.185Z,1022.54
2019-06-27T06:54:53.504Z,1022.58
2019-06-27T06:55:19.642Z,1022.56
2019-06-27T06:56:12.920Z,1022.55
2019-06-27T06:56:39.066Z,1022.56
2019-06-27T06:57:31.349Z,1022.61
2019-06-27T06:58:23.706Z,1022.6
2019-06-27T06:58:49.873Z,1022.57
2019-06-27T06:59:42.226Z,1022.58
2019-06-27T07:01:02.614Z,1022.62
2019-06-27T07:01:28.772Z,1022.64
2019-06-27T07:02:21.117Z,1022.63
2019-06-27T07:03:13.667Z,1022.67
2019-06-27T07:03:39.811Z,1022.63
2019-06-27T07:04:32.130Z,1022.64
2019-06-27T07:05:50.629Z,1022.66
2019-06-27T07:06:42.944Z,1022.69
2019-06-27T07:07:09.130Z,1022.68
2019-06-27T07:08:01.464Z,1022.66
2019-06-27T07:08:53.745Z,1022.66
2019-06-27T07:09:19.908Z,1022.68
2019-06-27T07:10:12.270Z,1022.71
2019-06-27T07:11:30.743Z,1022.81
2019-06-27T07:12:23.092Z,1022.85
2019-06-27T07:12:49.255Z,1022.87
2019-06-27T07:13:41.644Z,1022.86
2019-06-27T07:15:01.149Z,1022.86
2019-06-27T07:15:53.532Z,1022.78
2019-06-27T07:16:19.679Z,1022.83
2019-06-27T07:17:11.986Z,1022.84
2019-06-27T07:18:30.466Z,1022.85
2019-06-27T07:19:22.760Z,1022.84
2019-06-27T07:19:49.070Z,1022.83
2019-06-27T07:20:41.452Z,1022.82
2019-06-27T07:21:34.091Z,1022.83
2019-06-27T07:22:00.196Z,1022.83
2019-06-27T07:22:52.534Z,1022.81
2019-06-27T07:23:18.681Z,1022.81
2019-06-27T07:24:11.067Z,1022.85
2019-06-27T07:25:03.409Z,1022.84
2019-06-27T07:25:29.549Z,1022.81
2019-06-27T07:26:22.458Z,1022.84
2019-06-27T07:27:40.992Z,1022.83
2019-06-27T07:28:33.383Z,1022.81
2019-06-27T07:28:59.555Z,1022.85
2019-06-27T07:29:51.904Z,1022.87
2019-06-27T07:31:17.607Z,1022.84
2019-06-27T07:32:03.837Z,1022.85
2019-06-27T07:32:30.012Z,1022.81
2019-06-27T07:33:22.393Z,1022.79
2019-06-27T07:34:40.896Z,1022.85
2019-06-27T07:35:33.339Z,1022.82
2019-06-27T07:35:59.478Z,1022.81
2019-06-27T07:36:51.798Z,1022.85
2019-06-27T07:38:10.285Z,1022.85
2019-06-27T07:39:02.583Z,1022.8
2019-06-27T07:39:28.770Z,1022.87
2019-06-27T07:40:21.274Z,1022.86
2019-06-27T07:41:13.609Z,1022.87
2019-06-27T07:41:39.785Z,1022.89
2019-06-27T07:42:32.087Z,1022.87
2019-06-27T07:43:50.555Z,1022.85
2019-06-27T07:44:42.872Z,1022.82
2019-06-27T07:45:09.041Z,1022.83
2019-06-27T07:46:01.507Z,1022.82
2019-06-27T07:46:29.534Z,1022.82
2019-06-27T07:47:21.841Z,1022.86
2019-06-27T07:48:40.380Z,1022.79
2019-06-27T07:49:33.311Z,1022.83
2019-06-27T07:49:59.532Z,1022.82
2019-06-27T07:50:52.007Z,1022.84
2019-06-27T07:52:10.470Z,1022.84
2019-06-27T07:53:02.882Z,1022.87
2019-06-27T07:53:29.083Z,1022.88
2019-06-27T07:54:21.477Z,1022.82
2019-06-27T07:55:13.819Z,1022.84
2019-06-27T07:55:39.999Z,1022.83
2019-06-27T07:56:32.433Z,1022.83
2019-06-27T07:56:59.569Z,1022.84
2019-06-27T07:57:52.149Z,1022.8
2019-06-27T07:59:10.696Z,1022.85
2019-06-27T08:00:03.068Z,1022.81
2019-06-27T08:00:29.216Z,1022.85
2019-06-27T08:01:34.352Z,1022.86
2019-06-27T08:02:16.312Z,1022.85
2019-06-27T08:02:41.131Z,1022.85
2019-06-27T08:03:33.463Z,1022.85
2019-06-27T08:03:59.604Z,1022.88
2019-06-27T08:04:51.915Z,1022.91
2019-06-27T08:06:10.385Z,1022.83
2019-06-27T08:07:02.776Z,1022.87
2019-06-27T08:07:28.919Z,1022.83
2019-06-27T08:08:21.266Z,1022.8
2019-06-27T08:09:13.655Z,1022.87
2019-06-27T08:09:39.840Z,1022.89
2019-06-27T08:10:32.170Z,1022.89
2019-06-27T08:11:50.746Z,1022.89
2019-06-27T08:12:43.058Z,1022.86
2019-06-27T08:13:09.230Z,1022.89
2019-06-27T08:14:01.558Z,1022.85
2019-06-27T08:14:53.891Z,1022.86
2019-06-27T08:15:20.060Z,1022.83
2019-06-27T08:16:12.451Z,1022.85
2019-06-27T08:17:31.314Z,1022.85
2019-06-27T08:18:23.622Z,1022.85
2019-06-27T08:18:50.835Z,1022.82
2019-06-27T08:19:43.108Z,1022.9
2019-06-27T08:20:09.277Z,1022.88
2019-06-27T08:21:01.589Z,1022.88
2019-06-27T08:22:20.092Z,1022.89
2019-06-27T08:23:12.439Z,1022.87
2019-06-27T08:23:41.719Z,1022.88
2019-06-27T08:24:34.472Z,1022.9
2019-06-27T08:25:00.022Z,1022.89
2019-06-27T08:25:52.355Z,1022.87
2019-06-27T08:27:10.877Z,1022.92
2019-06-27T08:28:03.209Z,1022.91
2019-06-27T08:28:29.359Z,1022.89
2019-06-27T08:29:21.654Z,1022.93
2019-06-27T08:30:40.407Z,1022.97
2019-06-27T08:31:32.777Z,1022.92
2019-06-27T08:32:00.903Z,1022.88
2019-06-27T08:32:53.232Z,1022.9
2019-06-27T08:33:19.488Z,1022.91
2019-06-27T08:34:11.822Z,1022.9
2019-06-27T08:35:33.331Z,1022.89
2019-06-27T08:36:50.575Z,1022.88
2019-06-27T08:37:42.874Z,1022.85
2019-06-27T08:38:09.030Z,1022.87
2019-06-27T08:39:01.368Z,1022.86
2019-06-27T08:39:53.694Z,1022.85
2019-06-27T08:40:19.865Z,1022.88
2019-06-27T08:41:14.034Z,1022.9
2019-06-27T08:41:39.509Z,1022.91
2019-06-27T08:42:31.836Z,1022.86
2019-06-27T08:43:50.416Z,1022.9
2019-06-27T08:44:42.828Z,1022.88
2019-06-27T08:45:09.000Z,1022.91
2019-06-27T08:46:01.306Z,1022.91
2019-06-27T08:46:53.658Z,1022.95
2019-06-27T08:47:19.811Z,1022.95
2019-06-27T08:48:12.129Z,1022.92
2019-06-27T08:49:30.628Z,1022.91
2019-06-27T08:50:22.962Z,1022.89
2019-06-27T08:50:49.135Z,1022.91
2019-06-27T08:51:41.546Z,1022.88
2019-06-27T08:52:33.852Z,1022.9
2019-06-27T08:53:01.346Z,1022.9
2019-06-27T08:53:53.376Z,1022.94
2019-06-27T08:54:19.524Z,1022.93
2019-06-27T08:55:11.876Z,1022.85
2019-06-27T08:56:30.647Z,1022.87
2019-06-27T08:57:23.010Z,1022.91
2019-06-27T08:57:49.168Z,1022.91
2019-06-27T08:58:41.508Z,1022.89
2019-06-27T09:00:00.317Z,1022.87
2019-06-27T09:00:52.741Z,1022.9
2019-06-27T09:01:18.914Z,1022.92
2019-06-27T09:02:12.756Z,1022.87
2019-06-27T09:02:38.921Z,1022.86
2019-06-27T09:03:31.261Z,1022.88
2019-06-27T09:04:50.341Z,1022.82
2019-06-27T09:05:42.912Z,1022.84
2019-06-27T09:06:09.056Z,1022.82
2019-06-27T09:07:02.401Z,1022.86
2019-06-27T09:08:20.883Z,1022.86
2019-06-27T09:09:13.194Z,1022.86
2019-06-27T09:09:39.414Z,1022.84
2019-06-27T09:10:31.740Z,1022.9
2019-06-27T09:11:50.389Z,1022.79
2019-06-27T09:12:42.751Z,1022.78
2019-06-27T09:13:09.020Z,1022.77
2019-06-27T09:14:01.452Z,1022.79
2019-06-27T09:14:53.807Z,1022.83
2019-06-27T09:15:19.993Z,1022.88
2019-06-27T09:16:12.345Z,1022.84
2019-06-27T09:17:30.865Z,1022.85
2019-06-27T09:18:23.198Z,1022.82
2019-06-27T09:18:49.391Z,1022.82
2019-06-27T09:19:41.760Z,1022.84
2019-06-27T09:21:00.280Z,1022.8
2019-06-27T09:21:52.615Z,1022.85
2019-06-27T09:22:18.803Z,1022.81
2019-06-27T09:23:11.109Z,1022.87
2019-06-27T09:24:03.408Z,1022.86
2019-06-27T09:24:29.564Z,1022.86
2019-06-27T09:25:21.906Z,1022.79
2019-06-27T09:26:40.463Z,1022.85
2019-06-27T09:27:32.766Z,1022.81
2019-06-27T09:27:58.949Z,1022.86
2019-06-27T09:28:51.294Z,1022.85
2019-06-27T09:29:43.619Z,1022.85
2019-06-27T09:30:09.767Z,1022.85
2019-06-27T09:31:02.118Z,1022.81
2019-06-27T09:32:25.722Z,1022.81
2019-06-27T09:32:48.765Z,1022.84
2019-06-27T09:33:41.080Z,1022.83
2019-06-27T09:34:33.386Z,1022.87
2019-06-27T09:34:59.536Z,1022.91
2019-06-27T09:35:51.874Z,1022.91
2019-06-27T09:37:11.269Z,1022.87
2019-06-27T09:37:39.633Z,1022.87
2019-06-27T09:39:03.414Z,1022.88
2019-06-27T09:39:30.433Z,1022.87
2019-06-27T09:40:22.945Z,1022.85
2019-06-27T09:40:49.125Z,1022.84
2019-06-27T09:41:41.464Z,1022.87
2019-06-27T09:42:33.766Z,1022.84
2019-06-27T09:42:59.903Z,1022.83
2019-06-27T09:43:52.269Z,1022.82
2019-06-27T09:45:11.733Z,1022.8
2019-06-27T09:46:30.253Z,1022.85
2019-06-27T09:47:22.597Z,1022.8
2019-06-27T09:47:48.744Z,1022.84
2019-06-27T09:48:41.084Z,1022.82
2019-06-27T09:49:33.383Z,1022.8
2019-06-27T09:49:59.544Z,1022.87
2019-06-27T09:50:52.899Z,1022.82
2019-06-27T09:51:19.081Z,1022.83
2019-06-27T09:52:11.994Z,1022.83
2019-06-27T09:53:30.512Z,1022.84
2019-06-27T09:54:22.814Z,1022.85
2019-06-27T09:54:48.956Z,1022.85
2019-06-27T09:55:41.347Z,1022.88
2019-06-27T09:56:33.686Z,1022.83
2019-06-27T09:56:59.852Z,1022.87
2019-06-27T09:57:52.223Z,1022.87
2019-06-27T09:59:10.757Z,1022.84
2019-06-27T10:00:03.075Z,1022.84
2019-06-27T10:00:29.241Z,1022.87
2019-06-27T10:01:21.622Z,1022.9
2019-06-27T10:02:41.954Z,1022.94
2019-06-27T10:03:33.632Z,1022.95
2019-06-27T10:03:59.781Z,1022.95
2019-06-27T10:04:52.140Z,1022.98
2019-06-27T10:06:10.626Z,1022.98
2019-06-27T10:07:02.941Z,1022.96
2019-06-27T10:07:29.086Z,1022.95
2019-06-27T10:08:21.459Z,1022.98
2019-06-27T10:09:13.824Z,1022.98
2019-06-27T10:09:39.991Z,1022.99
2019-06-27T10:10:32.321Z,1023
2019-06-27T10:11:53.254Z,1022.99
2019-06-27T10:13:12.417Z,1022.96
2019-06-27T10:14:30.927Z,1023.02
2019-06-27T10:15:23.278Z,1023.02
2019-06-27T10:15:49.447Z,1023.02
2019-06-27T10:16:41.763Z,1023.04